createdAt,value
2018-12-26T00:02:22.823Z,5.37
2018-12-26T00:04:50.123Z,5.38
2018-12-26T00:07:16.941Z,5.36
2018-12-26T00:09:43.845Z,5.34
2018-12-26T00:12:11.313Z,5.31
2018-12-26T00:14:38.359Z,5.29
2018-12-26T00:17:05.400Z,5.21
2018-12-26T00:19:32.525Z,5.17
2018-12-26T00:22:00.694Z,5.13
2018-12-26T00:24:27.379Z,5.11
2018-12-26T00:26:55.292Z,5.10
2018-12-26T00:29:22.283Z,5.09
2018-12-26T00:31:49.340Z,5.04
2018-12-26T00:34:16.375Z,5.04
2018-12-26T00:36:43.575Z,5.02
2018-12-26T00:39:11.690Z,4.98
2018-12-26T00:41:39.228Z,4.99
2018-12-26T00:44:06.297Z,5.00
2018-12-26T00:46:33.683Z,4.95
2018-12-26T00:49:00.358Z,4.94
2018-12-26T00:51:27.617Z,4.98
2018-12-26T00:53:54.965Z,4.92
2018-12-26T00:56:21.890Z,4.89
2018-12-26T00:59:25.917Z,4.87
2018-12-26T01:01:39.940Z,4.88
2018-12-26T01:04:37.084Z,4.87
2018-12-26T01:07:30.835Z,4.87
2018-12-26T01:10:19.447Z,4.87
2018-12-26T01:13:12.115Z,4.90
2018-12-26T01:15:33.256Z,4.91
2018-12-26T01:18:00.482Z,4.94
2018-12-26T01:20:27.240Z,4.91
2018-12-26T01:22:54.374Z,4.96
2018-12-26T01:25:22.135Z,4.94
2018-12-26T01:27:48.790Z,4.97
2018-12-26T01:30:15.465Z,4.95
2018-12-26T01:32:42.869Z,4.95
2018-12-26T01:35:10.013Z,4.96
2018-12-26T01:37:37.365Z,5.00
2018-12-26T01:40:04.149Z,4.98
2018-12-26T01:42:30.836Z,5.00
2018-12-26T01:44:58.324Z,5.00
2018-12-26T01:47:25.566Z,5.06
2018-12-26T01:49:53.127Z,5.05
2018-12-26T01:52:20.294Z,5.09
2018-12-26T01:54:47.082Z,5.09
2018-12-26T01:57:13.862Z,5.08
2018-12-26T01:59:41.935Z,5.11
2018-12-26T02:02:09.795Z,5.09
2018-12-26T02:04:37.127Z,5.12
2018-12-26T02:07:04.528Z,5.13
2018-12-26T02:09:32.162Z,5.12
2018-12-26T02:11:58.830Z,5.15
2018-12-26T02:14:26.362Z,5.12
2018-12-26T02:16:53.503Z,5.18
2018-12-26T02:19:21.019Z,5.18
2018-12-26T02:21:48.214Z,5.17
2018-12-26T02:24:15.266Z,5.17
2018-12-26T02:26:43.245Z,5.18
2018-12-26T02:29:10.991Z,5.20
2018-12-26T02:31:38.996Z,5.18
2018-12-26T02:34:06.566Z,5.21
2018-12-26T02:36:33.780Z,5.19
2018-12-26T02:39:00.806Z,5.39
2018-12-26T02:41:27.525Z,5.51
2018-12-26T02:43:54.190Z,5.77
2018-12-26T02:46:21.707Z,5.61
2018-12-26T02:48:48.616Z,5.48
2018-12-26T02:51:15.289Z,5.39
2018-12-26T02:53:42.486Z,5.71
2018-12-26T02:56:09.723Z,5.64
2018-12-26T02:58:36.417Z,5.57
2018-12-26T03:01:03.551Z,5.52
2018-12-26T03:03:30.649Z,5.85
2018-12-26T03:05:58.504Z,5.78
2018-12-26T03:08:25.994Z,5.65
2018-12-26T03:10:52.656Z,6.13
2018-12-26T03:13:20.098Z,6.22
2018-12-26T03:15:46.802Z,6.29
2018-12-26T03:18:13.487Z,6.01
2018-12-26T03:20:40.166Z,5.76
2018-12-26T03:23:06.870Z,5.66
2018-12-26T03:25:33.801Z,5.81
2018-12-26T03:28:01.555Z,5.64
2018-12-26T03:30:29.454Z,5.48
2018-12-26T03:32:57.491Z,5.45
2018-12-26T03:35:24.170Z,5.48
2018-12-26T03:37:51.087Z,5.39
2018-12-26T03:40:18.327Z,5.39
2018-12-26T03:42:45.138Z,5.39
2018-12-26T03:45:12.725Z,5.46
2018-12-26T03:47:40.579Z,5.40
2018-12-26T03:50:09.371Z,5.42
2018-12-26T03:52:37.053Z,5.38
2018-12-26T03:55:05.125Z,5.38
2018-12-26T03:57:32.364Z,4.86
2018-12-26T03:59:59.846Z,5.47
2018-12-26T04:02:27.262Z,5.45
2018-12-26T04:04:55.123Z,5.42
2018-12-26T04:07:22.451Z,5.48
2018-12-26T04:09:50.367Z,5.50
2018-12-26T04:12:17.630Z,5.51
2018-12-26T04:14:45.680Z,5.57
2018-12-26T04:17:13.090Z,5.49
2018-12-26T04:19:40.511Z,5.55
2018-12-26T04:22:08.058Z,5.57
2018-12-26T04:24:36.034Z,5.52
2018-12-26T04:27:02.729Z,5.51
2018-12-26T04:29:30.220Z,5.55
2018-12-26T04:31:57.458Z,5.55
2018-12-26T04:34:24.490Z,5.51
2018-12-26T04:36:51.356Z,5.50
2018-12-26T04:39:18.033Z,5.54
2018-12-26T04:41:44.738Z,5.52
2018-12-26T04:44:12.542Z,5.56
2018-12-26T04:46:39.562Z,5.50
2018-12-26T04:49:06.332Z,5.53
2018-12-26T04:51:33.014Z,5.56
2018-12-26T04:54:00.496Z,5.62
2018-12-26T04:56:27.281Z,5.57
2018-12-26T04:58:54.652Z,5.53
2018-12-26T05:01:21.723Z,5.62
2018-12-26T05:03:48.468Z,5.59
2018-12-26T05:06:15.903Z,5.61
2018-12-26T05:08:43.623Z,5.61
2018-12-26T05:11:10.874Z,5.64
2018-12-26T05:13:37.901Z,5.68
2018-12-26T05:16:04.561Z,5.63
2018-12-26T05:18:31.350Z,5.66
2018-12-26T05:20:58.132Z,5.73
2018-12-26T05:23:25.363Z,5.70
2018-12-26T05:25:52.412Z,5.88
2018-12-26T05:28:19.467Z,5.73
2018-12-26T05:30:47.083Z,5.75
2018-12-26T05:33:14.957Z,5.79
2018-12-26T05:35:41.645Z,5.76
2018-12-26T05:38:09.337Z,5.76
2018-12-26T05:40:36.439Z,5.77
2018-12-26T05:43:03.358Z,5.82
2018-12-26T05:45:30.999Z,5.84
2018-12-26T05:47:57.681Z,5.85
2018-12-26T05:50:25.795Z,5.85
2018-12-26T05:52:53.305Z,5.86
2018-12-26T05:55:20.610Z,5.84
2018-12-26T05:57:47.956Z,5.85
2018-12-26T06:00:15.377Z,5.86
2018-12-26T06:02:42.062Z,5.98
2018-12-26T06:05:09.161Z,5.97
2018-12-26T06:07:35.829Z,5.95
2018-12-26T06:10:02.991Z,6.00
2018-12-26T06:12:30.364Z,6.04
2018-12-26T06:14:57.314Z,6.00
2018-12-26T06:17:24.315Z,6.06
2018-12-26T06:19:51.539Z,6.08
2018-12-26T06:22:18.439Z,6.03
2018-12-26T06:24:45.460Z,6.04
2018-12-26T06:27:13.905Z,6.02
2018-12-26T06:29:40.594Z,6.07
2018-12-26T06:32:07.295Z,6.07
2018-12-26T06:34:34.237Z,6.09
2018-12-26T06:37:01.254Z,6.09
2018-12-26T06:39:28.163Z,6.09
2018-12-26T06:41:55.573Z,6.10
2018-12-26T06:44:22.882Z,6.11
2018-12-26T06:46:49.804Z,6.09
2018-12-26T06:49:16.770Z,6.11
2018-12-26T06:51:43.441Z,6.12
2018-12-26T06:54:10.925Z,6.16
2018-12-26T06:56:38.269Z,6.21
2018-12-26T06:59:04.954Z,6.22
2018-12-26T07:01:31.700Z,6.18
2018-12-26T07:03:58.983Z,6.25
2018-12-26T07:06:26.566Z,6.19
2018-12-26T07:08:54.335Z,6.22
2018-12-26T07:11:21.444Z,6.22
2018-12-26T07:13:48.968Z,6.28
2018-12-26T07:16:16.880Z,6.26
2018-12-26T07:18:43.557Z,6.28
2018-12-26T07:21:10.477Z,6.37
2018-12-26T07:23:37.187Z,6.35
2018-12-26T07:26:03.845Z,6.34
2018-12-26T07:28:30.513Z,6.32
2018-12-26T07:30:57.190Z,6.34
2018-12-26T07:33:25.226Z,6.37
2018-12-26T07:35:52.181Z,6.35
2018-12-26T07:38:18.857Z,6.44
2018-12-26T07:40:45.620Z,6.43
2018-12-26T07:43:12.561Z,6.41
2018-12-26T07:45:39.568Z,6.43
2018-12-26T07:48:06.257Z,6.39
2018-12-26T07:50:33.317Z,6.37
2018-12-26T07:53:00.985Z,6.40
2018-12-26T07:55:27.806Z,6.44
2018-12-26T07:57:54.949Z,6.39
2018-12-26T08:00:21.646Z,6.40
2018-12-26T08:02:48.849Z,6.39
2018-12-26T08:05:16.182Z,6.48
2018-12-26T08:07:43.465Z,6.45
2018-12-26T08:10:10.534Z,6.42
2018-12-26T08:12:37.929Z,6.37
2018-12-26T08:15:10.537Z,6.37
2018-12-26T08:17:33.998Z,6.39
2018-12-26T08:20:01.018Z,6.36
2018-12-26T08:22:28.257Z,6.35
2018-12-26T08:24:55.134Z,6.39
2018-12-26T08:27:22.336Z,6.44
2018-12-26T08:29:49.013Z,6.45
2018-12-26T08:32:15.837Z,6.41
2018-12-26T08:34:42.695Z,6.39
2018-12-26T08:37:09.976Z,6.60
2018-12-26T08:39:38.533Z,6.46
2018-12-26T08:42:05.738Z,6.50
2018-12-26T08:44:32.678Z,6.60
2018-12-26T08:46:59.384Z,6.55
2018-12-26T08:49:26.189Z,6.60
2018-12-26T08:51:52.851Z,6.64
2018-12-26T08:54:25.867Z,6.58
2018-12-26T08:56:53.627Z,6.63
2018-12-26T08:59:20.374Z,6.62
2018-12-26T09:01:47.714Z,6.72
2018-12-26T09:04:15.686Z,6.72
2018-12-26T09:06:43.351Z,6.78
2018-12-26T09:09:11.442Z,6.75
2018-12-26T09:11:38.410Z,6.74
2018-12-26T09:14:06.269Z,6.79
2018-12-26T09:16:34.758Z,6.79
2018-12-26T09:19:02.068Z,6.84
2018-12-26T09:21:29.339Z,6.83
2018-12-26T09:23:56.975Z,6.93
2018-12-26T09:26:23.653Z,6.96
2018-12-26T09:28:50.333Z,6.93
2018-12-26T09:31:18.487Z,6.98
2018-12-26T09:33:45.976Z,6.97
2018-12-26T09:36:13.312Z,7.00
2018-12-26T09:38:41.305Z,7.04
2018-12-26T09:41:08.426Z,7.05
2018-12-26T09:43:35.533Z,7.03
2018-12-26T09:46:02.315Z,7.07
2018-12-26T09:48:30.210Z,7.05
2018-12-26T09:50:57.367Z,7.09
2018-12-26T09:53:24.523Z,7.08
2018-12-26T09:55:51.891Z,7.05
2018-12-26T09:58:19.717Z,7.07
2018-12-26T10:00:48.093Z,7.08
2018-12-26T10:03:16.176Z,7.13
2018-12-26T10:05:44.386Z,7.10
2018-12-26T10:08:11.648Z,7.08
2018-12-26T10:10:40.043Z,7.09
2018-12-26T10:13:07.466Z,7.07
2018-12-26T10:15:34.293Z,7.05
2018-12-26T10:18:01.182Z,7.09
2018-12-26T10:20:28.128Z,7.08
2018-12-26T10:22:55.620Z,7.07
2018-12-26T10:25:22.610Z,7.11
2018-12-26T10:27:49.623Z,7.07
2018-12-26T10:30:16.642Z,7.08
2018-12-26T10:32:43.914Z,7.04
2018-12-26T10:35:10.616Z,7.09
2018-12-26T10:37:37.676Z,7.08
2018-12-26T10:40:05.190Z,7.11
2018-12-26T10:42:31.871Z,7.12
2018-12-26T10:44:59.119Z,7.11
2018-12-26T10:47:26.069Z,7.10
2018-12-26T10:49:53.026Z,7.16
2018-12-26T10:52:20.382Z,7.17
2018-12-26T10:54:47.029Z,7.18
2018-12-26T10:57:14.378Z,7.17
2018-12-26T10:59:41.143Z,7.26
2018-12-26T11:02:07.936Z,7.19
2018-12-26T11:04:36.747Z,7.24
2018-12-26T11:07:03.717Z,7.28
2018-12-26T11:09:31.653Z,7.69
2018-12-26T11:11:59.026Z,8.28
2018-12-26T11:14:26.788Z,8.10
2018-12-26T11:16:54.526Z,7.86
2018-12-26T11:19:21.787Z,7.92
2018-12-26T11:21:49.433Z,8.69
2018-12-26T11:24:16.778Z,8.24
2018-12-26T11:26:44.244Z,8.23
2018-12-26T11:29:18.532Z,8.39
2018-12-26T11:31:40.599Z,8.07
2018-12-26T11:34:08.303Z,8.39
2018-12-26T11:36:34.981Z,8.46
2018-12-26T11:39:04.310Z,8.14
2018-12-26T11:41:31.897Z,8.46
2018-12-26T11:43:58.906Z,8.56
2018-12-26T11:46:26.774Z,8.53
2018-12-26T11:48:53.680Z,8.47
2018-12-26T11:51:20.891Z,8.72
2018-12-26T11:53:49.349Z,8.61
2018-12-26T11:56:17.065Z,8.68
2018-12-26T11:58:45.205Z,8.69
2018-12-26T12:01:12.149Z,8.45
2018-12-26T12:03:38.930Z,9.11
2018-12-26T12:06:06.618Z,8.70
2018-12-26T12:08:34.164Z,8.90
2018-12-26T12:11:01.363Z,8.71
2018-12-26T12:13:29.213Z,8.98
2018-12-26T12:15:56.266Z,9.04
2018-12-26T12:18:23.966Z,9.52
2018-12-26T12:20:51.415Z,8.96
2018-12-26T12:23:18.926Z,9.45
2018-12-26T12:25:46.211Z,9.39
2018-12-26T12:28:14.582Z,9.27
2018-12-26T12:30:42.525Z,9.04
2018-12-26T12:33:09.335Z,9.27
2018-12-26T12:35:36.587Z,8.81
2018-12-26T12:38:03.933Z,9.37
2018-12-26T12:40:30.749Z,9.17
2018-12-26T12:42:58.222Z,9.52
2018-12-26T12:45:25.768Z,9.42
2018-12-26T12:47:53.523Z,9.49
2018-12-26T12:50:21.038Z,9.33
2018-12-26T12:52:48.481Z,9.48
2018-12-26T12:55:15.171Z,9.07
2018-12-26T12:57:42.321Z,8.98
2018-12-26T13:00:10.781Z,9.16
2018-12-26T13:02:37.980Z,8.94
2018-12-26T13:05:04.851Z,8.87
2018-12-26T13:07:33.161Z,8.81
2018-12-26T13:10:00.459Z,9.31
2018-12-26T13:12:28.040Z,9.09
2018-12-26T13:14:54.960Z,9.08
2018-12-26T13:17:22.483Z,8.88
2018-12-26T13:19:51.111Z,9.46
2018-12-26T13:22:18.607Z,9.16
2018-12-26T13:24:46.400Z,9.32
2018-12-26T13:27:13.607Z,9.49
2018-12-26T13:29:42.165Z,9.13
2018-12-26T13:32:09.682Z,8.85
2018-12-26T13:34:37.152Z,9.22
2018-12-26T13:37:04.491Z,8.82
2018-12-26T13:39:31.174Z,9.66
2018-12-26T13:41:58.469Z,8.86
2018-12-26T13:44:26.065Z,8.88
2018-12-26T13:46:54.019Z,9.56
2018-12-26T13:49:20.681Z,9.75
2018-12-26T13:51:47.916Z,9.66
2018-12-26T13:54:14.599Z,9.47
2018-12-26T13:56:41.591Z,9.04
2018-12-26T13:59:08.917Z,9.31
2018-12-26T14:01:35.978Z,9.35
2018-12-26T14:04:04.661Z,8.73
2018-12-26T14:06:31.365Z,8.57
2018-12-26T14:08:58.432Z,8.40
2018-12-26T14:11:25.499Z,8.35
2018-12-26T14:13:53.077Z,8.37
2018-12-26T14:16:19.753Z,8.32
2018-12-26T14:18:47.519Z,8.33
2018-12-26T14:21:15.383Z,8.34
2018-12-26T14:23:42.562Z,8.26
2018-12-26T14:26:10.137Z,8.23
2018-12-26T14:28:37.809Z,8.24
2018-12-26T14:31:06.072Z,8.28
2018-12-26T14:33:33.336Z,8.29
2018-12-26T14:36:03.351Z,8.27
2018-12-26T14:38:31.100Z,8.20
2018-12-26T14:40:58.025Z,8.22
2018-12-26T14:43:25.226Z,8.27
2018-12-26T14:45:52.653Z,8.28
2018-12-26T14:48:20.462Z,8.25
2018-12-26T14:50:47.842Z,8.27
2018-12-26T14:53:15.038Z,8.25
2018-12-26T14:55:42.009Z,8.28
2018-12-26T14:58:09.738Z,8.23
2018-12-26T15:00:37.514Z,8.28
2018-12-26T15:03:04.541Z,8.24
2018-12-26T15:05:31.943Z,8.22
2018-12-26T15:07:58.858Z,8.19
2018-12-26T15:10:26.106Z,8.25
2018-12-26T15:12:53.421Z,8.24
2018-12-26T15:15:20.491Z,8.24
2018-12-26T15:17:48.180Z,8.19
2018-12-26T15:20:15.430Z,8.21
2018-12-26T15:22:43.176Z,8.27
2018-12-26T15:25:10.131Z,8.28
2018-12-26T15:27:37.004Z,8.26
2018-12-26T15:30:04.050Z,8.27
2018-12-26T15:32:30.830Z,8.28
2018-12-26T15:34:57.900Z,8.32
2018-12-26T15:37:27.746Z,8.34
2018-12-26T15:39:54.589Z,8.33
2018-12-26T15:42:23.453Z,8.32
2018-12-26T15:44:50.487Z,8.35
2018-12-26T15:47:17.472Z,8.34
2018-12-26T15:49:45.530Z,8.42
2018-12-26T15:52:12.963Z,8.37
2018-12-26T15:54:40.340Z,8.42
2018-12-26T15:57:07.429Z,8.37
2018-12-26T15:59:34.666Z,8.41
2018-12-26T16:02:02.699Z,8.43
2018-12-26T16:04:30.066Z,8.46
2018-12-26T16:06:57.295Z,8.47
2018-12-26T16:09:24.789Z,8.43
2018-12-26T16:11:51.705Z,8.43
2018-12-26T16:14:18.408Z,8.44
2018-12-26T16:16:45.604Z,8.46
2018-12-26T16:19:13.409Z,8.46
2018-12-26T16:21:40.815Z,8.49
2018-12-26T16:24:08.368Z,8.48
2018-12-26T16:26:35.619Z,8.52
2018-12-26T16:29:02.477Z,8.51
2018-12-26T16:31:29.261Z,8.50
2018-12-26T16:33:56.811Z,8.50
2018-12-26T16:36:23.790Z,8.49
2018-12-26T16:38:51.786Z,8.47
2018-12-26T16:41:19.936Z,8.52
2018-12-26T16:43:47.947Z,8.48
2018-12-26T16:46:15.715Z,8.51
2018-12-26T16:48:43.449Z,8.41
2018-12-26T16:51:10.938Z,8.49
2018-12-26T16:53:39.064Z,8.49
2018-12-26T16:56:06.564Z,8.49
2018-12-26T16:58:33.665Z,8.47
2018-12-26T17:01:00.914Z,8.45
2018-12-26T17:03:28.696Z,8.45
2018-12-26T17:05:55.654Z,8.50
2018-12-26T17:08:22.833Z,8.44
2018-12-26T17:10:50.132Z,8.48
2018-12-26T17:13:17.998Z,8.41
2018-12-26T17:15:44.659Z,8.43
2018-12-26T17:18:12.122Z,8.45
2018-12-26T17:20:39.266Z,8.43
2018-12-26T17:23:06.357Z,8.43
2018-12-26T17:25:33.989Z,8.48
2018-12-26T17:28:01.215Z,8.44
2018-12-26T17:30:28.289Z,8.46
2018-12-26T17:33:00.660Z,8.45
2018-12-26T17:35:26.457Z,8.43
2018-12-26T17:37:54.267Z,8.42
2018-12-26T17:40:22.429Z,8.47
2018-12-26T17:42:49.640Z,8.46
2018-12-26T17:45:23.915Z,8.42
2018-12-26T17:47:51.105Z,8.42
2018-12-26T17:50:53.222Z,8.43
2018-12-26T17:53:50.346Z,8.44
2018-12-26T17:56:35.470Z,8.40
2018-12-26T17:59:26.516Z,8.39
2018-12-26T18:02:04.802Z,8.37
2018-12-26T18:04:33.094Z,8.38
2018-12-26T18:07:00.334Z,8.36
2018-12-26T18:09:28.266Z,8.32
2018-12-26T18:11:55.783Z,8.31
2018-12-26T18:14:23.350Z,8.33
2018-12-26T18:16:50.789Z,8.38
2018-12-26T18:19:17.530Z,8.37
2018-12-26T18:21:44.971Z,8.34
2018-12-26T18:24:12.249Z,8.28
2018-12-26T18:26:39.374Z,8.25
2018-12-26T18:29:06.650Z,8.21
2018-12-26T18:31:33.797Z,8.26
2018-12-26T18:34:01.652Z,8.26
2018-12-26T18:36:29.746Z,8.23
2018-12-26T18:38:56.424Z,8.22
2018-12-26T18:41:23.728Z,8.25
2018-12-26T18:43:51.789Z,8.18
2018-12-26T18:46:19.178Z,8.21
2018-12-26T18:48:45.865Z,8.20
2018-12-26T18:51:13.129Z,8.16
2018-12-26T18:53:40.758Z,8.18
2018-12-26T18:56:08.261Z,8.22
2018-12-26T18:58:36.545Z,8.17
2018-12-26T19:01:03.490Z,8.16
2018-12-26T19:03:30.505Z,8.13
2018-12-26T19:05:58.293Z,8.12
2018-12-26T19:08:25.420Z,8.07
2018-12-26T19:10:52.813Z,8.45
2018-12-26T19:13:20.294Z,8.22
2018-12-26T19:15:47.053Z,8.12
2018-12-26T19:18:14.116Z,8.22
2018-12-26T19:20:41.502Z,8.24
2018-12-26T19:23:08.179Z,8.21
2018-12-26T19:25:35.357Z,8.09
2018-12-26T19:28:02.387Z,8.10
2018-12-26T19:30:29.461Z,8.13
2018-12-26T19:32:56.776Z,8.14
2018-12-26T19:35:25.410Z,8.32
2018-12-26T19:37:52.446Z,8.10
2018-12-26T19:40:19.421Z,7.99
2018-12-26T19:42:49.131Z,8.33
2018-12-26T19:45:16.808Z,7.99
2018-12-26T19:47:43.492Z,7.98
2018-12-26T19:50:11.313Z,7.89
2018-12-26T19:52:38.730Z,7.97
2018-12-26T19:55:07.027Z,8.14
2018-12-26T19:57:35.424Z,8.39
2018-12-26T20:00:03.772Z,8.06
2018-12-26T20:02:31.105Z,8.38
2018-12-26T20:05:00.014Z,8.03
2018-12-26T20:07:26.698Z,8.15
2018-12-26T20:09:54.516Z,7.82
2018-12-26T20:12:21.211Z,7.76
2018-12-26T20:14:47.900Z,7.83
2018-12-26T20:17:15.035Z,7.65
2018-12-26T20:19:43.123Z,7.62
2018-12-26T20:22:11.295Z,7.57
2018-12-26T20:24:38.749Z,8.26
2018-12-26T20:27:06.009Z,8.15
2018-12-26T20:29:33.370Z,7.81
2018-12-26T20:32:01.827Z,7.67
2018-12-26T20:34:28.506Z,7.80
2018-12-26T20:36:55.614Z,8.23
2018-12-26T20:39:22.865Z,8.28
2018-12-26T20:41:49.570Z,7.81
2018-12-26T20:44:17.695Z,7.77
2018-12-26T20:46:44.813Z,7.61
2018-12-26T20:49:12.499Z,7.60
2018-12-26T20:51:39.466Z,7.86
2018-12-26T20:54:07.909Z,8.25
2018-12-26T20:56:35.177Z,8.01
2018-12-26T20:59:04.042Z,7.67
2018-12-26T21:01:31.506Z,7.77
2018-12-26T21:03:58.662Z,9.14
2018-12-26T21:06:25.692Z,8.00
2018-12-26T21:08:52.342Z,7.76
2018-12-26T21:11:20.066Z,7.63
2018-12-26T21:13:47.771Z,7.77
2018-12-26T21:16:15.146Z,7.57
2018-12-26T21:18:42.405Z,7.98
2018-12-26T21:21:09.103Z,7.60
2018-12-26T21:23:37.093Z,8.15
2018-12-26T21:26:04.742Z,7.62
2018-12-26T21:28:32.393Z,7.73
2018-12-26T21:30:59.567Z,7.50
2018-12-26T21:33:26.816Z,7.49
2018-12-26T21:35:55.853Z,7.36
2018-12-26T21:38:23.073Z,7.30
2018-12-26T21:40:51.326Z,7.30
2018-12-26T21:43:18.939Z,7.21
2018-12-26T21:45:46.548Z,7.20
2018-12-26T21:48:13.748Z,7.19
2018-12-26T21:50:41.023Z,7.46
2018-12-26T21:53:08.914Z,7.77
2018-12-26T21:55:35.575Z,7.57
2018-12-26T21:58:03.207Z,7.66
2018-12-26T22:00:30.953Z,7.59
2018-12-26T22:02:57.834Z,7.61
2018-12-26T22:05:24.767Z,7.33
2018-12-26T22:07:51.792Z,7.28
2018-12-26T22:10:19.490Z,7.29
2018-12-26T22:12:46.220Z,7.21
2018-12-26T22:15:13.818Z,7.29
2018-12-26T22:17:41.130Z,7.26
2018-12-26T22:20:08.386Z,7.26
2018-12-26T22:22:35.878Z,7.21
2018-12-26T22:25:04.131Z,7.22
2018-12-26T22:27:31.182Z,7.23
2018-12-26T22:29:57.865Z,7.20
2018-12-26T22:32:30.560Z,7.18
2018-12-26T22:34:54.532Z,7.16
2018-12-26T22:37:22.117Z,7.14
2018-12-26T22:39:49.796Z,7.32
2018-12-26T22:42:17.653Z,7.23
2018-12-26T22:44:45.108Z,7.19
2018-12-26T22:47:12.427Z,7.18
2018-12-26T22:49:39.353Z,7.19
2018-12-26T22:52:06.865Z,7.21
2018-12-26T22:54:34.276Z,7.21
2018-12-26T22:57:02.073Z,7.19
2018-12-26T22:59:29.862Z,7.24
2018-12-26T23:01:57.202Z,7.20
2018-12-26T23:04:24.509Z,7.17
2018-12-26T23:06:51.513Z,7.19
2018-12-26T23:09:18.582Z,7.12
2018-12-26T23:11:46.041Z,7.07
2018-12-26T23:14:13.601Z,7.07
2018-12-26T23:16:40.271Z,7.03
2018-12-26T23:19:06.952Z,7.03
2018-12-26T23:21:33.973Z,7.03
2018-12-26T23:24:01.118Z,7.07
2018-12-26T23:26:28.162Z,7.05
2018-12-26T23:28:55.967Z,7.02
2018-12-26T23:31:23.623Z,7.04
2018-12-26T23:33:50.571Z,7.02
2018-12-26T23:36:18.031Z,7.00
2018-12-26T23:38:44.808Z,7.06
2018-12-26T23:41:12.222Z,6.98
2018-12-26T23:43:40.786Z,6.94
2018-12-26T23:46:07.839Z,6.93
2018-12-26T23:48:35.152Z,6.91
2018-12-26T23:51:03.026Z,6.89
2018-12-26T23:53:30.210Z,6.95
2018-12-26T23:55:57.677Z,6.82
2018-12-26T23:58:24.701Z,6.82
